createdAt,value
2023-04-27T00:08:59.725Z,8.85
2023-04-27T00:19:09.357Z,8.98
2023-04-27T00:29:11.819Z,8.82
2023-04-27T00:39:17.006Z,8.07
2023-04-27T00:49:27.114Z,8.30
2023-04-27T00:59:29.468Z,7.97
2023-04-27T01:09:36.857Z,9.35
2023-04-27T01:19:40.554Z,8.57
2023-04-27T01:29:42.588Z,7.97
2023-04-27T01:39:51.572Z,8.05
2023-04-27T01:49:53.650Z,7.63
2023-04-27T01:59:55.617Z,8.30
2023-04-27T02:09:57.819Z,7.70
2023-04-27T02:20:02.800Z,7.90
2023-04-27T02:30:15.017Z,7.97
2023-04-27T02:40:17.396Z,8.75
2023-04-27T02:50:51.294Z,8.38
2023-04-27T03:00:57.094Z,8.07
2023-04-27T03:11:06.124Z,8.38
2023-04-27T03:21:09.749Z,9.55
2023-04-27T03:31:17.826Z,8.25
2023-04-27T03:41:39.985Z,8.90
2023-04-27T03:51:42.630Z,8.68
2023-04-27T04:01:45.689Z,8.70
2023-04-27T04:11:49.612Z,8.45
2023-04-27T04:21:51.541Z,7.72
2023-04-27T04:32:18.744Z,8.25
2023-04-27T04:42:29.852Z,8.18
2023-04-27T04:52:33.816Z,8.07
2023-04-27T05:02:37.048Z,8.50
2023-04-27T05:12:45.014Z,7.43
2023-04-27T05:22:46.966Z,8.30
2023-04-27T05:32:49.106Z,7.82
2023-04-27T05:42:51.280Z,8.75
2023-04-27T05:52:54.945Z,7.72
2023-04-27T06:02:56.993Z,8.98
2023-04-27T06:13:05.363Z,7.25
2023-04-27T06:23:10.944Z,9.50
2023-04-27T06:33:12.960Z,8.65
2023-04-27T06:43:17.192Z,10.52
2023-04-27T06:53:21.224Z,10.50
2023-04-27T07:03:36.209Z,10.45
2023-04-27T07:13:38.414Z,10.93
2023-04-27T07:23:41.914Z,9.65
2023-04-27T07:33:45.049Z,10.77
2023-04-27T07:43:48.613Z,8.70
2023-04-27T07:53:50.946Z,9.30
2023-04-27T08:03:53.202Z,10.02
2023-04-27T08:13:55.488Z,7.80
2023-04-27T08:24:17.552Z,6.28
2023-04-27T08:34:20.599Z,5.20
2023-04-27T08:44:23.601Z,4.32
2023-04-27T08:54:28.789Z,5.85
2023-04-27T09:04:38.632Z,2.88
2023-04-27T09:14:40.656Z,5.68
2023-04-27T09:24:53.314Z,4.28
2023-04-27T09:34:55.328Z,4.10
2023-04-27T09:44:58.509Z,4.57
2023-04-27T09:55:02.618Z,2.47
2023-04-27T10:05:30.962Z,3.03
2023-04-27T10:15:33.004Z,2.85
2023-04-27T10:25:43.272Z,3.55
2023-04-27T10:35:57.617Z,4.25
2023-04-27T10:46:26.258Z,5.50
2023-04-27T10:56:29.521Z,5.22
2023-04-27T11:06:59.412Z,2.90
2023-04-27T11:17:02.893Z,2.90
2023-04-27T11:27:07.664Z,3.80
2023-04-27T11:37:34.356Z,3.50
2023-04-27T11:47:36.410Z,3.25
2023-04-27T11:57:39.095Z,2.72
2023-04-27T12:07:41.600Z,1.75
2023-04-27T12:17:48.815Z,1.98
2023-04-27T12:27:56.161Z,2.10
2023-04-27T12:38:00.221Z,1.88
2023-04-27T12:48:14.726Z,3.00
2023-04-27T12:58:18.236Z,2.45
2023-04-27T13:08:20.811Z,2.50
2023-04-27T13:18:22.940Z,2.47
2023-04-27T13:28:24.919Z,2.47
2023-04-27T13:38:39.207Z,2.10
2023-04-27T13:48:47.449Z,2.60
2023-04-27T13:58:50.003Z,2.42
2023-04-27T14:08:53.650Z,2.25
2023-04-27T14:18:57.255Z,2.10
2023-04-27T14:29:07.214Z,1.05
2023-04-27T14:39:09.932Z,1.60
2023-04-27T14:49:12.053Z,2.63
2023-04-27T14:59:14.270Z,1.45
2023-04-27T15:09:16.546Z,2.83
2023-04-27T15:19:18.537Z,3.17
2023-04-27T15:29:20.589Z,2.72
2023-04-27T15:39:23.352Z,3.33
2023-04-27T15:49:26.593Z,4.40
2023-04-27T15:59:31.511Z,4.60
2023-04-27T16:09:33.449Z,3.88
2023-04-27T16:19:38.459Z,4.30
2023-04-27T16:29:42.001Z,4.68
2023-04-27T16:39:44.014Z,4.10
2023-04-27T16:49:48.225Z,2.97
2023-04-27T16:59:52.297Z,4.15
2023-04-27T17:09:56.450Z,4.03
2023-04-27T17:19:58.616Z,3.67
2023-04-27T17:30:03.596Z,3.90
2023-04-27T17:40:09.404Z,4.47
2023-04-27T17:50:22.312Z,5.65
2023-04-27T18:10:29.750Z,4.78
2023-04-27T18:20:38.731Z,5.78
2023-04-27T18:30:43.223Z,6.50
2023-04-27T18:40:49.357Z,8.57
2023-04-27T18:50:55.078Z,6.97
2023-04-27T19:01:21.756Z,9.38
2023-04-27T19:11:25.260Z,9.82
2023-04-27T19:21:27.935Z,9.63
2023-04-27T19:31:31.480Z,11.25
2023-04-27T19:41:42.821Z,16.83
2023-04-27T19:51:45.055Z,21.90
2023-04-27T20:01:47.328Z,26.95
2023-04-27T20:11:50.685Z,20.25
2023-04-27T20:21:52.886Z,16.10
2023-04-27T20:31:55.810Z,15.93
2023-04-27T20:42:00.386Z,24.25
2023-04-27T20:52:02.757Z,19.75
2023-04-27T21:02:06.252Z,22.33
2023-04-27T21:12:09.605Z,23.00
2023-04-27T21:22:12.688Z,25.15
2023-04-27T21:32:14.564Z,21.80
2023-04-27T21:42:18.499Z,24.23
2023-04-27T21:52:21.719Z,22.58
2023-04-27T22:02:24.079Z,22.17
2023-04-27T22:12:26.179Z,22.00
2023-04-27T22:22:32.236Z,20.95
2023-04-27T22:32:36.688Z,19.73
2023-04-27T22:42:38.770Z,21.52
2023-04-27T22:52:44.490Z,21.15
2023-04-27T23:02:47.643Z,18.13
2023-04-27T23:12:50.974Z,21.83
2023-04-27T23:22:57.486Z,20.38
2023-04-27T23:32:59.520Z,20.05
2023-04-27T23:43:01.781Z,20.10
2023-04-27T23:53:05.778Z,18.05
